Time;durP1;ratioP1;P1;durP2;ratioP2;P2;SDS_P1;SDS_P2;PMS_P1;PMS_P2;Temp;Humidity;BMP_temperature;BMP_pressure;BME280_temperature;BME280_humidity;BME280_pressure;Samples;Min_cycle;Max_cycle;Signal;HPM_P1;HPM_P2
2022/04/15 00:00:26;;;;;;;0.00;0.00;;;;;;;11.80;46.06;99526.59;4841156;29;20121;-90
2022/04/15 00:02:52;;;;;;;0.00;0.00;;;;;;;11.77;45.46;99529.03;4841528;29;20037;-89
2022/04/15 00:05:34;;;;;;;0.70;0.57;;;;;;;11.76;45.31;99525.53;4840760;29;20501;-90
2022/04/15 00:08:00;;;;;;;0.00;0.00;;;;;;;11.74;46.08;99524.19;4840669;29;20102;-86
2022/04/15 00:10:28;;;;;;;0.00;0.00;;;;;;;11.76;45.94;99532.78;4840936;29;20041;-85
2022/04/15 00:12:55;;;;;;;0.00;0.00;;;;;;;11.78;45.79;99536.78;4840919;29;20093;-85
2022/04/15 00:15:20;;;;;;;0.00;0.00;;;;;;;11.74;45.68;99533.03;4841168;29;20098;-82
2022/04/15 00:17:46;;;;;;;0.00;0.00;;;;;;;11.74;45.11;99534.91;4839705;29;20038;-82
2022/04/15 00:20:12;;;;;;;0.00;0.00;;;;;;;11.71;44.83;99528.22;4844950;29;20037;-81
2022/04/15 00:22:38;;;;;;;0.00;0.00;;;;;;;11.71;45.57;99530.09;4856409;29;20041;-82
2022/04/15 00:25:04;;;;;;;0.00;0.00;;;;;;;11.71;46.52;99532.78;4840782;29;20038;-81
2022/04/15 00:27:29;;;;;;;0.00;0.00;;;;;;;11.72;46.64;99529.00;4840942;29;20060;-83
2022/04/15 00:29:55;;;;;;;0.00;0.00;;;;;;;11.71;47.28;99524.75;4840382;29;20069;-84
2022/04/15 00:32:20;;;;;;;0.00;0.00;;;;;;;11.71;47.67;99522.06;4840276;29;20113;-81
2022/04/15 00:34:46;;;;;;;0.00;0.00;;;;;;;11.68;47.64;99532.25;4840143;29;20045;-80
2022/04/15 00:37:11;;;;;;;0.00;0.00;;;;;;;11.63;47.21;99529.59;4840309;29;20026;-81
2022/04/15 00:39:39;;;;;;;0.20;0.20;;;;;;;11.60;47.03;99532.78;4840242;29;20069;-81
2022/04/15 00:42:08;;;;;;;0.00;0.00;;;;;;;11.58;46.71;99526.88;4849575;29;20152;-87
2022/04/15 00:44:34;;;;;;;0.00;0.00;;;;;;;11.51;46.62;99524.50;4856033;29;20545;-83
2022/04/15 00:46:59;;;;;;;0.00;0.00;;;;;;;11.38;46.49;99522.38;4856116;29;20049;-80
2022/04/15 00:49:25;;;;;;;0.00;0.00;;;;;;;11.35;46.91;99529.06;4855675;29;20049;-80
2022/04/15 00:51:51;;;;;;;0.03;0.03;;;;;;;11.26;46.69;99535.25;4871083;29;20564;-80
2022/04/15 00:54:19;;;;;;;0.00;0.00;;;;;;;11.16;47.27;99526.13;4840255;29;20061;-81
2022/04/15 00:56:46;;;;;;;0.00;0.00;;;;;;;11.09;48.15;99530.16;4855282;29;20481;-87
2022/04/15 00:59:13;;;;;;;0.00;0.00;;;;;;;11.01;48.26;99529.59;4855452;29;20037;-85
2022/04/15 01:01:40;;;;;;;0.00;0.00;;;;;;;10.97;47.67;99519.69;4855099;29;20472;-86
2022/04/15 01:04:05;;;;;;;0.08;0.08;;;;;;;10.94;47.89;99529.06;4855434;29;20041;-88
2022/04/15 01:06:31;;;;;;;0.00;0.00;;;;;;;10.92;47.73;99523.16;4855111;29;20053;-87
2022/04/15 01:08:58;;;;;;;0.10;0.10;;;;;;;10.95;47.78;99525.31;4854964;29;20034;-85
2022/04/15 01:11:26;;;;;;;0.00;0.00;;;;;;;10.94;48.16;99526.38;4854959;29;20042;-86
2022/04/15 01:13:52;;;;;;;0.00;0.00;;;;;;;10.90;48.42;99525.31;4870616;29;20077;-84
2022/04/15 01:16:20;;;;;;;0.00;0.00;;;;;;;10.89;47.92;99524.50;4854826;29;20470;-84
2022/04/15 01:18:46;;;;;;;0.00;0.00;;;;;;;10.83;47.48;99517.53;4854765;29;20402;-84
2022/04/15 01:21:13;;;;;;;0.00;0.00;;;;;;;10.82;47.73;99521.28;4855509;29;20042;-84
2022/04/15 01:23:41;;;;;;;0.00;0.00;;;;;;;10.81;47.66;99519.66;4855101;29;20041;-83
2022/04/15 01:26:07;;;;;;;0.10;0.10;;;;;;;10.82;47.78;99515.94;4854332;29;20038;-83
2022/04/15 01:28:33;;;;;;;0.10;0.10;;;;;;;10.82;47.79;99518.59;4854774;29;20038;-86
2022/04/15 01:30:58;;;;;;;0.00;0.00;;;;;;;10.84;47.93;99515.66;4855182;29;20503;-82
2022/04/15 01:33:23;;;;;;;0.00;0.00;;;;;;;10.84;48.10;99512.97;4854586;29;20046;-81
2022/04/15 01:35:49;;;;;;;0.00;0.00;;;;;;;10.82;47.79;99515.94;4870330;29;20046;-80
2022/04/15 01:38:17;;;;;;;0.00;0.00;;;;;;;10.81;47.86;99518.88;4854557;29;20037;-81
2022/04/15 01:40:46;;;;;;;0.47;0.47;;;;;;;10.80;47.78;99512.75;4854402;29;20110;-82
2022/04/15 01:43:12;;;;;;;0.10;0.10;;;;;;;10.69;48.52;99511.09;4839042;29;20290;-83
2022/04/15 01:45:37;;;;;;;0.10;0.10;;;;;;;10.63;48.51;99504.97;4839181;29;20407;-82
2022/04/15 01:48:03;;;;;;;0.00;0.00;;;;;;;10.60;48.58;99502.00;4839402;29;20505;-88
2022/04/15 01:50:29;;;;;;;0.00;0.00;;;;;;;10.57;48.44;99506.81;4839305;29;20022;-86
2022/04/15 01:52:55;;;;;;;0.00;0.00;;;;;;;10.53;48.60;99499.56;4838985;29;20038;-85
2022/04/15 01:55:21;;;;;;;0.00;0.00;;;;;;;10.52;48.19;99500.63;4838625;29;20041;-87
2022/04/15 01:57:47;;;;;;;0.00;0.00;;;;;;;10.50;48.20;99503.56;4835123;29;20414;-83
2022/04/15 02:00:12;;;;;;;0.00;0.00;;;;;;;10.48;47.95;99500.34;4838794;29;20120;-85
2022/04/15 02:02:38;;;;;;;0.00;0.00;;;;;;;10.47;48.08;99489.94;4838868;29;20030;-81
2022/04/15 02:05:04;;;;;;;0.00;0.00;;;;;;;10.50;47.94;99492.09;4823869;29;20553;-78
2022/04/15 02:07:29;;;;;;;0.00;0.00;;;;;;;10.49;48.71;99493.16;4840074;29;20030;-81
2022/04/15 02:09:55;;;;;;;0.00;0.00;;;;;;;10.49;48.45;99493.16;4823624;29;20037;-79
2022/04/15 02:12:20;;;;;;;0.00;0.00;;;;;;;10.51;48.83;99491.00;4853794;29;20038;-83
2022/04/15 02:14:47;;;;;;;0.00;0.00;;;;;;;10.49;48.75;99488.59;4839026;29;20430;-78
2022/04/15 02:17:12;;;;;;;0.00;0.00;;;;;;;10.49;48.83;99474.44;4823817;29;20038;-78
2022/04/15 02:19:38;;;;;;;0.00;0.00;;;;;;;10.49;48.88;99479.78;4837889;29;20036;-78
2022/04/15 02:22:04;;;;;;;0.00;0.00;;;;;;;10.48;49.59;99475.50;4840860;29;20042;-79
2022/04/15 02:24:29;;;;;;;0.00;0.00;;;;;;;10.48;49.95;99468.25;4822822;29;20515;-78
2022/04/15 02:26:54;;;;;;;0.00;0.00;;;;;;;10.51;49.67;99461.59;4854220;29;20183;-83
2022/04/15 02:29:20;;;;;;;0.00;0.00;;;;;;;10.50;50.10;99471.50;4853653;29;20034;-78
2022/04/15 02:31:45;;;;;;;0.00;0.00;;;;;;;10.49;50.03;99463.75;4838843;29;20030;-77
2022/04/15 02:34:11;;;;;;;0.00;0.00;;;;;;;10.46;50.21;99475.78;4838646;29;20124;-78
2022/04/15 02:36:36;;;;;;;0.00;0.00;;;;;;;10.45;50.20;99468.81;4838115;29;20117;-78
2022/04/15 02:39:02;;;;;;;0.00;0.00;;;;;;;10.47;50.18;99471.22;4838569;29;20128;-79
2022/04/15 02:41:28;;;;;;;0.00;0.00;;;;;;;10.32;50.00;99470.06;4830137;29;20056;-82
2022/04/15 02:43:54;;;;;;;0.00;0.00;;;;;;;10.26;50.22;99473.81;4820682;29;20133;-84
2022/04/15 02:46:20;;;;;;;0.00;0.00;;;;;;;10.17;50.48;99478.88;4819792;29;20038;-80
2022/04/15 02:48:45;;;;;;;0.00;0.00;;;;;;;10.09;50.69;99480.19;4820284;29;20034;-82
2022/04/15 02:51:14;;;;;;;0.00;0.00;;;;;;;10.03;50.51;99478.56;4820302;29;20122;-84
2022/04/15 02:53:39;;;;;;;0.00;0.00;;;;;;;9.99;50.25;99471.31;4820765;29;20496;-83
2022/04/15 02:56:05;;;;;;;0.00;0.00;;;;;;;9.91;49.94;99476.09;4823398;29;20117;-84
2022/04/15 02:58:30;;;;;;;0.00;0.00;;;;;;;9.88;50.23;99478.47;4808125;29;20422;-84
2022/04/15 03:00:55;;;;;;;0.00;0.00;;;;;;;9.84;50.47;99472.84;4823429;29;20431;-83
2022/04/15 03:03:21;;;;;;;0.00;0.00;;;;;;;9.78;50.88;99474.69;4838874;29;20040;-79
2022/04/15 03:05:46;;;;;;;0.00;0.00;;;;;;;9.75;51.04;99475.22;4823158;29;20038;-81
2022/04/15 03:08:12;;;;;;;0.00;0.00;;;;;;;9.72;51.32;99469.59;4823643;29;20027;-79
2022/04/15 03:10:37;;;;;;;0.00;0.00;;;;;;;9.68;51.08;99474.66;4823429;29;20039;-79
2022/04/15 03:13:03;;;;;;;0.00;0.00;;;;;;;9.65;51.18;99469.81;4823056;29;20046;-79
2022/04/15 03:15:28;;;;;;;0.00;0.00;;;;;;;9.60;51.10;99467.91;4838931;29;20041;-79
2022/04/15 03:17:54;;;;;;;0.00;0.00;;;;;;;9.58;51.47;99474.59;4823303;29;20416;-80
2022/04/15 03:20:21;;;;;;;0.00;0.00;;;;;;;9.54;51.23;99482.31;4822891;29;20042;-78
2022/04/15 03:22:46;;;;;;;0.00;0.00;;;;;;;9.50;51.53;99483.88;4839106;29;20038;-83
2022/04/15 03:25:15;;;;;;;0.00;0.00;;;;;;;9.51;51.40;99488.16;4823190;29;20046;-80
2022/04/15 03:28:25;;;;;;;0.63;0.63;;;;;;;9.49;51.57;99484.94;4807877;29;20151;-85
2022/04/15 03:31:34;;;;;;;0.00;0.00;;;;;;;9.44;51.44;99491.06;4822871;29;20037;-86
2022/04/15 03:34:16;;;;;;;0.00;0.00;;;;;;;9.38;51.47;99500.09;4824118;29;20034;-81
2022/04/15 03:36:42;;;;;;;0.00;0.00;;;;;;;9.38;51.31;99489.41;4822256;29;20040;-85
2022/04/15 03:39:55;;;;;;;0.10;0.10;;;;;;;9.27;51.53;99482.41;4837744;29;20503;-88
2022/04/15 03:42:20;;;;;;;1.13;0.38;;;;;;;9.29;51.48;99481.09;4839397;29;20082;-79
2022/04/15 03:44:45;;;;;;;0.00;0.00;;;;;;;9.28;51.38;99484.81;4867788;29;20041;-78
2022/04/15 03:47:11;;;;;;;0.00;0.00;;;;;;;9.30;51.54;99476.53;4856610;29;20033;-79
2022/04/15 03:49:36;;;;;;;0.00;0.00;;;;;;;9.32;51.60;99482.44;4856419;29;20129;-79
2022/04/15 03:52:02;;;;;;;0.00;0.00;;;;;;;9.35;51.54;99481.94;4857012;29;20034;-78
2022/04/15 03:54:27;;;;;;;0.00;0.00;;;;;;;9.39;51.65;99480.34;4856067;29;20038;-80
2022/04/15 03:56:53;;;;;;;0.00;0.00;;;;;;;9.43;51.32;99489.44;4872122;29;20125;-79
2022/04/15 03:59:18;;;;;;;0.00;0.00;;;;;;;9.50;51.25;99494.56;4855790;29;20134;-79
2022/04/15 04:01:44;;;;;;;0.00;0.00;;;;;;;9.55;51.39;99491.13;4856912;29;20045;-80
2022/04/15 04:04:10;;;;;;;0.00;0.00;;;;;;;9.64;51.33;99481.56;4856641;29;20446;-85
2022/04/15 04:06:36;;;;;;;0.00;0.00;;;;;;;9.75;51.67;99488.56;4870718;29;20052;-84
2022/04/15 04:09:02;;;;;;;0.00;0.00;;;;;;;9.94;51.53;99488.13;4856307;29;20144;-87
2022/04/15 04:11:27;;;;;;;0.00;0.00;;;;;;;10.12;51.38;99492.22;4870086;29;20114;-85
2022/04/15 04:13:52;;;;;;;0.00;0.00;;;;;;;10.34;50.43;99489.34;4855999;29;20034;-89
2022/04/15 04:16:18;;;;;;;0.00;0.00;;;;;;;10.59;49.63;99489.69;4855980;29;20495;-78
2022/04/15 04:18:44;;;;;;;0.00;0.00;;;;;;;10.89;49.23;99496.97;4841650;29;20034;-76
2022/04/15 04:21:10;;;;;;;0.00;0.00;;;;;;;11.21;47.94;99485.97;4841610;29;20105;-77
2022/04/15 04:23:35;;;;;;;0.00;0.00;;;;;;;11.56;47.29;99491.56;4841361;29;20113;-76
2022/04/15 04:26:02;;;;;;;0.00;0.00;;;;;;;11.89;45.99;99488.50;4846653;29;20076;-75
2022/04/15 04:28:27;;;;;;;0.00;0.00;;;;;;;12.27;45.43;99495.06;4874097;29;20045;-75
2022/04/15 04:30:53;;;;;;;0.00;0.00;;;;;;;12.60;44.95;99490.06;4860279;29;20042;-76
2022/04/15 04:33:19;;;;;;;0.00;0.00;;;;;;;13.00;43.55;99495.44;4860344;29;20026;-76
2022/04/15 04:35:45;;;;;;;0.00;0.00;;;;;;;13.40;42.97;99493.50;4860639;29;20033;-76
2022/04/15 04:38:10;;;;;;;0.00;0.00;;;;;;;13.83;41.98;99490.09;4859980;29;20038;-76
2022/04/15 04:40:36;;;;;;;0.10;0.10;;;;;;;14.19;40.57;99483.47;4859869;29;20029;-76
2022/04/15 04:43:04;;;;;;;0.00;0.00;;;;;;;14.55;39.66;99483.78;4860086;29;20037;-76
2022/04/15 04:45:30;;;;;;;0.00;0.00;;;;;;;14.97;38.89;99488.56;4859918;29;20113;-77
2022/04/15 04:47:56;;;;;;;0.00;0.00;;;;;;;15.37;38.15;99497.06;4860081;29;20202;-76
2022/04/15 04:50:22;;;;;;;0.00;0.00;;;;;;;15.74;37.47;99487.19;4859797;29;20541;-76
2022/04/15 04:52:48;;;;;;;0.00;0.00;;;;;;;16.06;36.49;99490.91;4860187;29;20407;-76
2022/04/15 04:55:15;;;;;;;0.10;0.10;;;;;;;16.42;36.04;99500.94;4860381;29;20029;-76
2022/04/15 04:57:43;;;;;;;0.00;0.00;;;;;;;16.77;35.41;99503.94;4859508;29;20153;-77
2022/04/15 05:00:11;;;;;;;0.00;0.00;;;;;;;17.13;35.14;99511.22;4859986;29;20093;-77
2022/04/15 05:02:37;;;;;;;0.10;0.10;;;;;;;17.48;34.22;99507.94;4859770;29;20522;-77
2022/04/15 05:05:03;;;;;;;0.10;0.10;;;;;;;17.83;33.64;99515.38;4859742;29;20266;-75
2022/04/15 05:07:28;;;;;;;0.00;0.00;;;;;;;18.18;32.89;99510.88;4858281;29;20029;-75
2022/04/15 05:09:54;;;;;;;0.10;0.10;;;;;;;18.49;32.51;99501.88;4859922;29;20040;-75
2022/04/15 05:12:19;;;;;;;0.10;0.10;;;;;;;18.77;31.95;99506.16;4859606;29;20035;-75
2022/04/15 05:14:45;;;;;;;0.10;0.10;;;;;;;18.99;31.41;99510.63;4859497;29;20034;-75
2022/04/15 05:17:10;;;;;;;0.10;0.10;;;;;;;19.19;31.21;99509.19;4859021;29;20025;-75
2022/04/15 05:19:36;;;;;;;0.00;0.00;;;;;;;19.39;30.66;99507.69;4857510;29;20379;-75
2022/04/15 05:22:02;;;;;;;0.00;0.00;;;;;;;19.63;30.73;99500.91;4858680;29;20033;-75
2022/04/15 05:24:27;;;;;;;0.03;0.03;;;;;;;19.88;30.77;99512.78;4858692;29;20034;-75
2022/04/15 05:26:53;;;;;;;0.05;0.05;;;;;;;20.10;30.61;99502.78;4859379;29;20033;-75
2022/04/15 05:29:18;;;;;;;0.10;0.10;;;;;;;20.30;30.24;99503.94;4859325;29;20116;-77
2022/04/15 05:31:43;;;;;;;0.10;0.10;;;;;;;20.53;29.94;99511.75;4859703;29;20494;-76
2022/04/15 05:34:09;;;;;;;0.00;0.00;;;;;;;20.76;29.56;99514.97;4859539;29;20482;-76
2022/04/15 05:36:34;;;;;;;0.00;0.00;;;;;;;20.98;29.12;99502.91;4859498;29;20039;-77
2022/04/15 05:39:00;;;;;;;0.00;0.00;;;;;;;21.21;28.80;99511.50;4858055;29;20038;-76
2022/04/15 05:41:25;;;;;;;0.00;0.00;;;;;;;21.42;28.82;99510.63;4862267;29;20495;-76
2022/04/15 05:43:51;;;;;;;0.13;0.13;;;;;;;21.54;28.30;99512.59;4859378;29;20112;-76
2022/04/15 05:46:16;;;;;;;0.00;0.00;;;;;;;21.71;28.24;99512.41;4859061;29;20033;-76
2022/04/15 05:48:42;;;;;;;0.00;0.00;;;;;;;21.73;28.39;99514.78;4873202;29;20030;-75
2022/04/15 05:51:07;;;;;;;0.00;0.00;;;;;;;21.80;28.16;99516.94;4858966;29;20408;-76
2022/04/15 05:53:33;;;;;;;0.00;0.00;;;;;;;21.83;28.51;99519.00;4858895;29;20022;-77
2022/04/15 05:55:58;;;;;;;0.00;0.00;;;;;;;21.89;28.55;99515.69;4873447;29;20037;-76
2022/04/15 05:58:27;;;;;;;0.10;0.10;;;;;;;21.96;29.14;99517.06;4872965;29;20041;-76
2022/04/15 06:00:53;;;;;;;0.00;0.00;;;;;;;22.06;29.10;99516.59;4858870;29;20036;-76
2022/04/15 06:03:20;;;;;;;0.00;0.00;;;;;;;22.14;29.37;99510.25;4857778;29;20041;-75
2022/04/15 06:05:49;;;;;;;0.00;0.00;;;;;;;22.12;29.12;99506.25;4858820;29;20041;-75
2022/04/15 06:08:16;;;;;;;0.15;0.15;;;;;;;22.21;29.29;99512.38;4858939;29;20116;-76
2022/04/15 06:10:42;;;;;;;0.08;0.08;;;;;;;22.22;29.09;99509.31;4858752;29;20041;-76
2022/04/15 06:13:19;;;;;;;0.00;0.00;;;;;;;22.19;29.31;99503.75;4858941;29;20033;-75
2022/04/15 06:15:53;;;;;;;0.00;0.00;;;;;;;22.22;29.48;99509.31;4858702;29;20034;-75
2022/04/15 06:18:19;;;;;;;0.00;0.00;;;;;;;22.17;29.11;99506.81;4858693;29;20471;-75
2022/04/15 06:20:47;;;;;;;0.00;0.00;;;;;;;22.09;29.17;99512.41;4858223;29;20414;-75
2022/04/15 06:23:13;;;;;;;0.00;0.00;;;;;;;22.05;28.41;99504.13;4859122;29;20033;-75
2022/04/15 06:25:38;;;;;;;0.00;0.00;;;;;;;21.90;27.22;99506.41;4872693;29;20030;-75
2022/04/15 06:28:04;;;;;;;0.25;0.25;;;;;;;21.81;27.62;99500.25;4858771;29;20033;-77
2022/04/15 06:30:30;;;;;;;0.00;0.00;;;;;;;21.79;27.62;99513.44;4872606;29;20082;-77
2022/04/15 06:32:55;;;;;;;0.00;0.00;;;;;;;21.72;27.41;99511.25;4858736;29;20470;-75
2022/04/15 06:35:20;;;;;;;0.10;0.10;;;;;;;;;;4858695;29;20042;-75
2022/04/15 06:37:46;;;;;;;0.17;0.17;;;;;;;21.56;27.72;99502.16;4858338;29;20046;-75
2022/04/15 06:40:12;;;;;;;0.20;0.20;;;;;;;21.53;27.74;99513.72;4858528;29;20094;-75
2022/04/15 06:42:37;;;;;;;0.00;0.00;;;;;;;21.50;28.03;99511.69;4858456;29;20132;-75
2022/04/15 06:45:03;;;;;;;0.03;0.03;;;;;;;21.36;27.82;99509.25;4858547;29;20490;-75
2022/04/15 06:47:29;;;;;;;0.00;0.00;;;;;;;21.30;28.44;99511.41;4857070;29;20460;-75
2022/04/15 06:49:54;;;;;;;0.00;0.00;;;;;;;21.35;28.49;99511.19;4858709;29;20026;-75
2022/04/15 06:52:20;;;;;;;0.20;0.20;;;;;;;21.05;27.34;99507.84;4858460;29;20029;-76
2022/04/15 06:54:46;;;;;;;0.00;0.00;;;;;;;20.94;27.54;99516.38;4858244;29;20102;-75
2022/04/15 06:57:12;;;;;;;0.03;0.03;;;;;;;20.91;28.86;99511.63;4858432;29;20049;-76
2022/04/15 06:59:37;;;;;;;0.00;0.00;;;;;;;20.89;28.83;99511.16;4858141;29;20550;-76
2022/04/15 07:02:03;;;;;;;0.17;0.17;;;;;;;20.88;28.83;99495.97;4858577;29;20040;-75
2022/04/15 07:04:29;;;;;;;0.00;0.00;;;;;;;20.83;29.14;99514.44;4857917;29;20078;-75
2022/04/15 07:06:55;;;;;;;0.10;0.10;;;;;;;20.87;29.67;99508.00;4858088;29;20033;-75
2022/04/15 07:09:20;;;;;;;0.00;0.00;;;;;;;20.89;29.65;99497.56;4858418;29;20061;-77
2022/04/15 07:11:46;;;;;;;0.00;0.00;;;;;;;20.95;29.66;99512.53;4857907;29;20562;-75
2022/04/15 07:14:12;;;;;;;0.00;0.00;;;;;;;21.00;29.02;99508.84;4858388;29;20031;-75
2022/04/15 07:16:38;;;;;;;0.55;0.55;;;;;;;21.05;29.56;99505.91;4858294;29;20064;-77
2022/04/15 07:19:07;;;;;;;0.03;0.03;;;;;;;21.10;29.06;99510.34;4858035;29;20161;-77
2022/04/15 07:21:37;;;;;;;0.00;0.00;;;;;;;21.03;29.21;99510.91;4858066;29;20501;-76
2022/04/15 07:24:04;;;;;;;0.00;0.00;;;;;;;20.93;29.76;99500.41;4857961;29;20029;-77
2022/04/15 07:26:29;;;;;;;0.00;0.00;;;;;;;20.77;29.52;99498.31;4858312;29;20165;-77
2022/04/15 07:28:55;;;;;;;0.10;0.10;;;;;;;20.62;29.90;99505.13;4858286;29;20539;-76
2022/04/15 07:31:21;;;;;;;0.00;0.00;;;;;;;20.54;29.95;99500.56;4858310;29;20033;-77
2022/04/15 07:33:46;;;;;;;0.10;0.10;;;;;;;20.42;30.18;99498.59;4856763;29;20124;-76
2022/04/15 07:36:59;;;;;;;0.00;0.00;;;;;;;20.35;30.49;99505.66;4858263;29;20173;-77
2022/04/15 07:38:59;;;;;;;0.10;0.10;;;;;;;20.20;30.99;99501.59;4854169;29;20580;-77
2022/04/15 07:41:24;;;;;;;0.10;0.10;;;;;;;20.25;31.67;99504.13;4859291;29;20642;-77
2022/04/15 07:43:50;;;;;;;0.00;0.00;;;;;;;20.23;30.57;99501.75;4860844;29;20036;-77
2022/04/15 07:46:16;;;;;;;0.20;0.20;;;;;;;20.03;30.61;99499.78;4860979;29;20038;-77
2022/04/15 07:48:42;;;;;;;2.55;0.25;;;;;;;19.83;30.82;99496.66;4861125;29;20086;-76
2022/04/15 07:51:08;;;;;;;0.22;0.22;;;;;;;19.68;31.26;99496.09;4861391;29;20029;-77
2022/04/15 07:53:33;;;;;;;0.30;0.30;;;;;;;19.60;31.60;99490.69;4861035;29;20030;-77
2022/04/15 07:55:59;;;;;;;0.15;0.15;;;;;;;19.49;31.48;99490.25;4861475;29;20044;-77
2022/04/15 07:58:24;;;;;;;0.10;0.10;;;;;;;19.51;31.30;99491.53;4859792;29;20034;-76
2022/04/15 08:00:49;;;;;;;0.95;0.95;;;;;;;19.51;31.23;99477.97;4859816;29;20072;-77
2022/04/15 08:03:17;;;;;;;0.60;0.60;;;;;;;19.67;31.34;99480.13;4861356;29;20026;-76
2022/04/15 08:05:43;;;;;;;0.50;0.50;;;;;;;19.62;30.65;99474.91;4860716;29;20097;-77
2022/04/15 08:08:08;;;;;;;0.43;0.43;;;;;;;19.70;31.20;99482.22;4861023;29;20033;-76
2022/04/15 08:10:34;;;;;;;0.30;0.30;;;;;;;19.70;30.67;99486.84;4860590;29;20032;-77
2022/04/15 08:13:01;;;;;;;0.10;0.10;;;;;;;19.70;30.51;99474.06;4860914;29;20121;-77
2022/04/15 08:15:27;;;;;;;0.10;0.10;;;;;;;19.73;30.29;99470.69;4859621;29;20034;-77
2022/04/15 08:17:52;;;;;;;0.20;0.20;;;;;;;19.78;29.98;99467.00;4860297;29;20098;-77
2022/04/15 08:20:18;;;;;;;0.10;0.10;;;;;;;19.88;30.16;99471.28;4860587;29;20547;-77
2022/04/15 08:22:44;;;;;;;0.10;0.10;;;;;;;19.99;30.32;99461.63;4859258;29;20064;-77
2022/04/15 08:25:09;;;;;;;0.20;0.20;;;;;;;20.12;31.28;99454.38;4860778;29;20040;-77
2022/04/15 08:27:35;;;;;;;0.00;0.00;;;;;;;20.27;31.10;99458.41;4860532;29;20030;-76
2022/04/15 08:30:01;;;;;;;0.00;0.00;;;;;;;20.47;30.78;99451.41;4859458;29;20045;-76
2022/04/15 08:32:33;;;;;;;0.00;0.00;;;;;;;20.63;30.24;99446.16;4860630;29;20034;-77
2022/04/15 08:35:03;;;;;;;0.00;0.00;;;;;;;20.79;29.05;99449.84;4860601;29;20037;-77
2022/04/15 08:37:28;;;;;;;0.10;0.10;;;;;;;20.88;29.27;99441.59;4860544;29;20618;-77
2022/04/15 08:39:54;;;;;;;0.00;0.00;;;;;;;21.04;28.29;99440.97;4860549;29;20147;-76
2022/04/15 08:42:20;;;;;;;0.20;0.20;;;;;;;21.02;27.55;99441.31;4860531;29;20086;-77
2022/04/15 08:44:50;;;;;;;0.00;0.00;;;;;;;20.95;27.50;99432.91;4860141;29;20061;-77
2022/04/15 08:47:15;;;;;;;0.30;0.30;;;;;;;20.90;27.90;99430.44;4860321;29;20053;-77
2022/04/15 08:49:41;;;;;;;0.00;0.00;;;;;;;20.92;28.12;99434.38;4860098;29;20042;-76
2022/04/15 08:52:08;;;;;;;0.00;0.00;;;;;;;20.93;28.19;99422.38;4858898;29;20382;-76
2022/04/15 08:54:34;;;;;;;0.45;0.38;;;;;;;20.95;27.91;99422.81;4860013;29;20042;-77
2022/04/15 08:56:59;;;;;;;0.10;0.10;;;;;;;20.97;27.80;99425.22;4860339;29;20045;-77
2022/04/15 08:59:25;;;;;;;0.00;0.00;;;;;;;20.94;27.73;99421.25;4859801;29;20558;-77
2022/04/15 09:01:51;;;;;;;0.00;0.00;;;;;;;20.94;27.91;99415.00;4858601;29;20037;-77
2022/04/15 09:04:18;;;;;;;0.20;0.20;;;;;;;20.95;27.75;99411.16;4859673;29;20033;-76
2022/04/15 09:06:44;;;;;;;0.10;0.10;;;;;;;20.96;27.91;99410.03;4858492;29;20482;-76
2022/04/15 09:09:14;;;;;;;0.00;0.00;;;;;;;21.03;28.56;99402.13;4859983;29;20041;-77
2022/04/15 09:11:42;;;;;;;0.00;0.00;;;;;;;21.13;28.80;99406.34;4859448;29;20566;-77
2022/04/15 09:14:12;;;;;;;0.20;0.20;;;;;;;21.24;28.30;99399.31;4859911;29;20112;-77
2022/04/15 09:16:42;;;;;;;0.00;0.00;;;;;;;21.31;27.60;99396.00;4859689;29;20065;-75
2022/04/15 09:19:09;;;;;;;0.08;0.08;;;;;;;21.30;27.81;99394.44;4859713;29;20093;-77
2022/04/15 09:21:36;;;;;;;0.00;0.00;;;;;;;21.35;28.15;99391.50;4859576;29;20044;-77
2022/04/15 09:24:02;;;;;;;0.00;0.00;;;;;;;21.34;27.44;99386.41;4859569;29;20194;-77
2022/04/15 09:26:28;;;;;;;0.00;0.00;;;;;;;21.35;27.97;99388.78;4859700;29;20025;-77
2022/04/15 09:28:53;;;;;;;0.13;0.13;;;;;;;21.36;27.65;99386.84;4859392;29;20106;-77
2022/04/15 09:31:23;;;;;;;0.20;0.20;;;;;;;21.36;27.78;99384.13;4859488;29;20090;-77
2022/04/15 09:34:02;;;;;;;0.08;0.08;;;;;;;21.41;29.35;99378.44;4859335;29;20045;-77
2022/04/15 09:36:29;;;;;;;0.10;0.10;;;;;;;21.43;27.81;99387.88;4859240;29;20037;-77
2022/04/15 09:38:59;;;;;;;0.00;0.00;;;;;;;21.28;28.11;99370.28;4859197;29;20113;-77
2022/04/15 09:41:27;;;;;;;0.00;0.00;;;;;;;21.30;27.99;99375.41;4859186;29;20069;-77
2022/04/15 09:43:53;;;;;;;0.00;0.00;;;;;;;21.30;28.04;99372.69;4859317;29;20037;-77
2022/04/15 09:46:19;;;;;;;0.05;0.05;;;;;;;21.35;27.93;99375.19;4859138;29;20030;-77
2022/04/15 09:49:02;;;;;;;0.00;0.00;;;;;;;21.35;27.70;99364.28;4859032;29;20037;-77
2022/04/15 09:51:29;;;;;;;0.10;0.10;;;;;;;21.38;27.90;99363.59;4859309;29;20120;-77
2022/04/15 09:53:58;;;;;;;0.10;0.10;;;;;;;21.38;28.25;99352.72;4859150;29;20481;-76
2022/04/15 09:56:24;;;;;;;0.00;0.00;;;;;;;21.42;28.03;99350.13;4858900;29;20033;-77
2022/04/15 09:58:55;;;;;;;0.10;0.10;;;;;;;21.44;28.40;99347.84;4858973;29;20038;-77
2022/04/15 10:01:26;;;;;;;0.00;0.00;;;;;;;21.52;28.26;99346.94;4858936;29;20104;-77
2022/04/15 10:03:54;;;;;;;0.20;0.20;;;;;;;21.56;28.18;99334.25;4858397;29;20038;-77
2022/04/15 10:06:20;;;;;;;0.00;0.00;;;;;;;21.74;28.50;99342.19;4859135;29;20033;-77
2022/04/15 10:08:47;;;;;;;0.00;0.00;;;;;;;21.82;28.62;99327.63;4859037;29;20052;-77
2022/04/15 10:11:15;;;;;;;0.10;0.10;;;;;;;21.91;27.25;99333.72;4859283;29;20117;-77
2022/04/15 10:13:44;;;;;;;0.10;0.10;;;;;;;21.83;26.36;99326.50;4858788;29;20042;-77
2022/04/15 10:16:10;;;;;;;0.17;0.17;;;;;;;21.79;26.76;99316.63;4858879;29;20112;-76
2022/04/15 10:18:36;;;;;;;0.00;0.00;;;;;;;21.85;26.48;99321.50;4858797;29;20108;-77
2022/04/15 10:21:04;;;;;;;0.10;0.10;;;;;;;21.86;26.64;99309.47;4859108;29;20041;-77
2022/04/15 10:23:30;;;;;;;0.10;0.10;;;;;;;21.87;27.02;99312.97;4858898;29;20109;-77
2022/04/15 10:26:00;;;;;;;1.40;1.30;;;;;;;21.90;26.60;99315.81;4858622;29;20033;-77
2022/04/15 10:28:45;;;;;;;0.00;0.00;;;;;;;21.94;26.86;99307.75;4853183;29;20106;-77
2022/04/15 10:31:16;;;;;;;0.10;0.10;;;;;;;21.99;26.99;99293.09;4839869;29;20040;-77
2022/04/15 10:33:52;;;;;;;0.00;0.00;;;;;;;22.09;26.33;99295.31;4840102;29;20042;-77
2022/04/15 10:36:22;;;;;;;0.10;0.10;;;;;;;22.18;25.86;99297.88;4840587;29;20053;-77
2022/04/15 10:39:03;;;;;;;0.05;0.05;;;;;;;22.18;25.69;99285.06;4839717;29;20084;-76
2022/04/15 10:41:29;;;;;;;0.03;0.03;;;;;;;22.21;25.84;99278.13;4839968;29;20054;-76
2022/04/15 10:43:57;;;;;;;0.00;0.00;;;;;;;22.25;25.89;99283.66;4840294;29;20090;-76
2022/04/15 10:46:29;;;;;;;0.00;0.00;;;;;;;22.26;25.14;99268.91;4840165;29;20066;-76
2022/04/15 10:48:57;;;;;;;0.20;0.20;;;;;;;22.22;24.74;99269.59;4839890;29;20491;-76
2022/04/15 10:51:25;;;;;;;;;;;;;;;22.21;24.49;99278.91;4840551;29;20038;-76
2022/04/15 10:53:51;;;;;;;0.08;0.08;;;;;;;22.16;24.41;99276.44;4839752;29;19917;-76
2022/04/15 10:56:18;;;;;;;0.10;0.10;;;;;;;22.16;24.49;99264.75;4839896;29;20040;-76
2022/04/15 11:02:04;;;;;;;0.08;0.08;;;;;;;22.16;25.11;99260.09;4839886;29;20532;-75
2022/04/15 11:04:35;;;;;;;0.00;0.00;;;;;;;22.23;25.35;99254.06;4840084;29;20030;-76
2022/04/15 11:07:14;;;;;;;0.05;0.05;;;;;;;22.28;25.48;99239.38;4840079;29;20034;-75
2022/04/15 11:09:39;;;;;;;0.10;0.10;;;;;;;22.34;25.45;99255.13;4839585;29;20030;-75
2022/04/15 11:12:06;;;;;;;0.10;0.10;;;;;;;22.35;25.54;99247.72;4839903;29;20555;-75
2022/04/15 11:14:38;;;;;;;0.43;0.25;;;;;;;22.34;25.41;99243.44;4839912;29;20129;-75
2022/04/15 11:17:07;;;;;;;0.10;0.10;;;;;;;22.37;25.74;99234.53;4841886;29;20026;-75
2022/04/15 11:19:33;;;;;;;0.43;0.35;;;;;;;22.38;25.51;99241.63;4842036;29;20347;-75
2022/04/15 11:22:00;;;;;;;0.10;0.10;;;;;;;22.39;25.60;99237.75;4857244;29;20026;-77
2022/04/15 11:24:28;;;;;;;0.10;0.10;;;;;;;22.39;25.75;99226.84;4843032;29;20430;-75
2022/04/15 11:27:00;;;;;;;0.52;0.52;;;;;;;22.34;25.97;99227.09;4842953;29;20559;-75
2022/04/15 11:29:30;;;;;;;0.10;0.10;;;;;;;22.40;26.10;99223.00;4843259;29;20106;-77
2022/04/15 11:32:14;;;;;;;0.00;0.00;;;;;;;22.44;25.33;99223.09;4842985;29;20030;-77
2022/04/15 11:34:41;;;;;;;0.10;0.10;;;;;;;22.47;25.07;99220.44;4843431;29;20034;-75
2022/04/15 11:37:09;;;;;;;0.10;0.10;;;;;;;22.50;25.23;99211.56;4843101;29;20399;-76